This is the latest recevied weather packets stored in our database for station/object KGRR-WX. If no packets are shown the sender has not sent any weather packets the latest 10 day(s).
| Time | Temp. | Humidity | Pressure | Rain* | Wind** | Luminosity | Snow |
|---|---|---|---|---|---|---|---|
| 1778083226 | 10.56° C | 41% | 985 hPa | 0 mm | - | - | - |
| 1778082310 | 10° C | 43% | 985.6 hPa | 0 mm | - | - | - |
| 1778081414 | 9.44° C | 48% | 984.9 hPa | 0 mm | - | - | - |
| 1778080510 | 9.44° C | 48% | 984.9 hPa | 0 mm | - | - | - |
| 1778079627 | 8.89° C | 48% | 984.9 hPa | 0 mm | - | - | - |
| 1778078710 | 8.89° C | 53% | 985.2 hPa | 0 mm | - | - | - |
| 1778077823 | 8.33° C | 53% | 985.2 hPa | 0 mm | - | - | - |
| 1778076910 | 8.33° C | 53% | 985.2 hPa | 0 mm | - | - | - |
| 1778076025 | 7.78° C | 50% | 984.6 hPa | 0 mm | - | - | - |
| 1778075106 | 7.22° C | 62% | 984 hPa | 0 mm | - | - | - |
| 1778074223 | 6.67° C | 62% | 984 hPa | 0 mm | - | - | - |
| 1778073308 | 6.67° C | 62% | 984 hPa | 0 mm | - | - | - |
| 1778072419 | 6.11° C | 62% | 984 hPa | 0 mm | - | - | - |
| 1778071511 | 5.56° C | 71% | 983 hPa | 0 mm | - | - | - |
| 1778070623 | 5° C | 71% | 983 hPa | 0 mm | - | - | - |
| 1778069711 | 4.44° C | 71% | 983 hPa | 0 mm | - | - | - |
| 1778068828 | 3.89° C | 71% | 983 hPa | 0 mm | - | - | - |
| 1778067910 | 3.89° C | 78% | 982.4 hPa | 0 mm | - | - | - |
| 1778067015 | 3.33° C | 76% | 982.3 hPa | 0 mm | - | - | - |
| 1778066108 | 2.78° C | 76% | 982.3 hPa | 0 mm | - | - | - |
| 1778065226 | 2.22° C | 76% | 982.3 hPa | 0 mm | - | - | - |
| 1778064308 | 2.22° C | 71% | 982.2 hPa | 0 mm | - | - | - |
| 1778063416 | 2.22° C | 71% | 982.2 hPa | 0 mm | - | - | - |
| 1778062508 | 2.78° C | 71% | 982.2 hPa | 0 mm | - | - | - |
| 1778061626 | 2.78° C | 71% | 982.2 hPa | 0 mm | - | - | - |
* Rain latest hour (hover to see other rain measurements)
** Current wind speed in m/s (hover to see current wind gust speed)